Time;durP1;ratioP1;P1;durP2;ratioP2;P2;SDS_P1;SDS_P2;PMS_P1;PMS_P2;Temp;Humidity;BMP_temperature;BMP_pressure;BME280_temperature;BME280_humidity;BME280_pressure;Samples;Min_cycle;Max_cycle;Signal;HPM_P1;HPM_P2
2023/08/03 00:00:00;;;;;;;;;0.00;0.00;;;;;17.32;90.48;98750.34;5027314;28;9015;-68
2023/08/03 00:02:37;;;;;;;;;0.00;0.00;;;;;17.33;90.36;98751.97;5008449;28;8841;-68
2023/08/03 00:05:04;;;;;;;;;0.00;0.00;;;;;17.37;90.13;98746.75;4998858;28;8880;-68
2023/08/03 00:07:32;;;;;;;;;0.00;0.00;;;;;17.38;89.98;98753.81;5005736;28;8838;-68
2023/08/03 00:09:58;;;;;;;;;2.50;1.00;;;;;17.35;89.95;98751.69;5005741;28;9555;-67
2023/08/03 00:12:25;;;;;;;;;0.00;0.00;;;;;17.34;90.13;98758.22;5025424;28;8970;-67
2023/08/03 00:14:52;;;;;;;;;2.25;0.50;;;;;17.37;90.34;98760.34;5010181;28;8932;-68
2023/08/03 00:17:18;;;;;;;;;0.00;0.00;;;;;17.39;90.12;98758.97;5009863;28;8831;-68
2023/08/03 00:19:45;;;;;;;;;0.00;0.00;;;;;17.39;90.01;98767.13;4994980;28;8845;-68
2023/08/03 00:22:11;;;;;;;;;1.00;1.00;;;;;17.38;90.18;98762.81;5001492;28;9568;-67
2023/08/03 00:24:38;;;;;;;;;1.00;1.00;;;;;17.36;90.39;98775.06;5005848;28;8924;-68
2023/08/03 00:27:05;;;;;;;;;0.50;0.50;;;;;17.37;90.83;98772.03;5012210;28;8858;-67
2023/08/03 00:29:31;;;;;;;;;2.25;0.75;;;;;17.37;90.73;98782.13;5007772;28;8958;-68
2023/08/03 00:32:00;;;;;;;;;0.50;0.50;;;;;17.41;90.56;98788.59;5012019;28;8851;-68
2023/08/03 00:34:29;;;;;;;;;0.00;0.00;;;;;17.43;90.84;98794.56;5011830;28;8815;-68
2023/08/03 00:36:55;;;;;;;;;1.00;1.00;;;;;17.44;90.69;98794.28;5008469;28;8851;-68
2023/08/03 00:39:23;;;;;;;;;0.00;0.00;;;;;17.46;90.79;98800.25;5004067;28;8858;-68
2023/08/03 00:41:51;;;;;;;;;0.50;0.50;;;;;17.48;90.45;98803.47;5003944;28;8890;-67
2023/08/03 00:44:18;;;;;;;;;0.00;0.00;;;;;17.49;90.34;98809.72;5004783;28;8842;-68
2023/08/03 00:46:45;;;;;;;;;1.00;0.50;;;;;17.49;90.14;98810.53;5009908;28;8824;-68
2023/08/03 00:49:13;;;;;;;;;0.00;0.00;;;;;17.49;90.36;98813.25;4991878;28;8864;-68
2023/08/03 00:51:40;;;;;;;;;1.75;1.00;;;;;17.49;90.73;98821.41;5005551;28;8791;-68
2023/08/03 00:54:08;;;;;;;;;0.00;0.00;;;;;17.51;90.52;98832.03;5010037;28;8839;-68
2023/08/03 00:56:38;;;;;;;;;0.00;0.00;;;;;17.51;90.39;98829.31;5011741;28;8831;-68
2023/08/03 00:59:06;;;;;;;;;1.50;0.00;;;;;17.50;90.41;98836.66;5010993;28;8865;-68
2023/08/03 01:01:33;;;;;;;;;0.50;0.00;;;;;17.48;90.12;98836.13;4999491;28;8825;-68
2023/08/03 01:03:59;;;;;;;;;0.00;0.00;;;;;17.48;90.43;98843.47;5008262;28;9854;-68
2023/08/03 01:06:26;;;;;;;;;1.00;1.00;;;;;17.47;90.16;98844.56;4990943;28;8948;-68
2023/08/03 01:08:54;;;;;;;;;1.00;0.00;;;;;17.47;90.36;98841.84;4993025;28;8880;-68
2023/08/03 01:11:21;;;;;;;;;0.00;0.00;;;;;17.45;90.05;98850.28;5004990;28;8824;-68
2023/08/03 01:13:48;;;;;;;;;0.00;0.00;;;;;17.43;90.13;98855.22;5011512;28;8890;-68
2023/08/03 01:16:15;;;;;;;;;0.00;0.00;;;;;17.44;90.16;98862.28;5002081;28;9645;-68
2023/08/03 01:18:42;;;;;;;;;0.25;0.00;;;;;17.44;89.95;98861.47;5009431;28;8874;-68
2023/08/03 01:21:11;;;;;;;;;0.00;0.00;;;;;17.44;89.84;98865.00;5020363;28;8866;-69
2023/08/03 01:23:37;;;;;;;;;0.75;0.00;;;;;17.45;90.12;98872.03;5011450;28;8870;-68
2023/08/03 01:26:04;;;;;;;;;0.00;0.00;;;;;17.46;90.08;98879.13;5000073;28;8859;-68
2023/08/03 01:28:30;;;;;;;;;1.00;0.00;;;;;17.45;89.86;98882.94;5004138;28;8854;-68
2023/08/03 01:30:57;;;;;;;;;0.00;0.00;;;;;17.46;89.86;98889.19;5026317;28;8929;-69
2023/08/03 01:33:24;;;;;;;;;0.00;0.00;;;;;17.46;89.95;98889.19;5011908;28;8909;-69
2023/08/03 01:35:51;;;;;;;;;0.75;0.75;;;;;17.45;90.13;98901.97;5012427;28;8827;-68
2023/08/03 01:38:18;;;;;;;;;0.00;0.00;;;;;17.46;89.92;98892.72;5011348;28;8839;-68
2023/08/03 01:40:46;;;;;;;;;0.00;0.00;;;;;17.47;89.96;98899.78;5002865;28;8992;-69
2023/08/03 01:43:13;;;;;;;;;0.00;0.00;;;;;17.48;90.16;98909.56;5012488;28;8839;-68
2023/08/03 01:45:40;;;;;;;;;1.00;0.00;;;;;17.48;90.01;98904.13;5008412;28;8823;-68
2023/08/03 01:48:06;;;;;;;;;0.00;0.00;;;;;17.49;90.03;98908.47;4994981;28;8861;-68
2023/08/03 01:50:34;;;;;;;;;0.00;0.00;;;;;17.48;90.08;98909.56;4994141;28;8847;-69
2023/08/03 01:53:01;;;;;;;;;0.00;0.00;;;;;17.50;90.10;98907.38;5008590;28;8827;-68
2023/08/03 01:55:27;;;;;;;;;0.50;0.50;;;;;17.50;90.12;98909.25;5003876;28;8939;-68
2023/08/03 01:57:54;;;;;;;;;1.25;0.00;;;;;17.50;89.92;98906.53;5003837;28;9504;-68
2023/08/03 02:00:20;;;;;;;;;1.50;1.00;;;;;17.50;89.90;98899.22;5004497;28;8862;-68
2023/08/03 02:02:47;;;;;;;;;0.00;0.00;;;;;17.50;90.00;98914.69;5021090;28;8836;-69
2023/08/03 02:05:17;;;;;;;;;0.00;0.00;;;;;17.51;90.10;98916.34;5009599;28;8843;-68
2023/08/03 02:07:55;;;;;;;;;1.00;0.25;;;;;17.48;90.11;98920.44;5004354;28;8862;-68
2023/08/03 02:10:23;;;;;;;;;0.75;0.75;;;;;17.45;90.15;98917.47;5007002;28;8973;-68
2023/08/03 02:12:50;;;;;;;;;1.50;0.00;;;;;17.45;90.18;98926.44;5010431;28;8851;-69
2023/08/03 02:15:17;;;;;;;;;2.75;0.00;;;;;17.45;90.19;98931.88;5023860;28;8847;-69
2023/08/03 02:17:44;;;;;;;;;1.00;1.00;;;;;17.45;90.37;98925.63;5005692;28;8847;-68
2023/08/03 02:20:11;;;;;;;;;1.50;1.50;;;;;17.45;90.44;98923.72;5008409;28;8975;-69
2023/08/03 02:22:38;;;;;;;;;1.00;1.00;;;;;17.46;90.29;98927.25;5018909;28;8973;-69
2023/08/03 02:25:05;;;;;;;;;1.00;1.00;;;;;17.46;90.15;98928.09;5008975;28;8851;-68
2023/08/03 02:27:32;;;;;;;;;3.75;1.00;;;;;17.46;90.16;98936.25;5007058;28;8990;-67
2023/08/03 02:29:58;;;;;;;;;3.00;0.75;;;;;17.45;90.10;98940.06;5006258;28;8878;-69
2023/08/03 02:32:28;;;;;;;;;1.75;0.25;;;;;17.43;90.20;98933.28;5007621;28;8839;-69
2023/08/03 02:34:54;;;;;;;;;1.25;1.25;;;;;17.41;90.34;98930.03;5005053;28;8849;-68
2023/08/03 02:37:21;;;;;;;;;2.00;2.00;;;;;17.40;90.31;98931.13;4999592;28;8863;-69
2023/08/03 02:39:48;;;;;;;;;1.00;1.00;;;;;17.41;90.00;98946.34;4997919;28;8883;-68
2023/08/03 02:42:21;;;;;;;;;1.50;1.50;;;;;17.39;89.80;98941.22;5008964;28;8839;-68
2023/08/03 02:44:47;;;;;;;;;1.50;1.50;;;;;17.43;90.06;98946.91;5008018;28;8843;-68
2023/08/03 02:47:14;;;;;;;;;1.00;1.00;;;;;17.42;90.12;98943.38;5023818;28;8835;-68
2023/08/03 02:49:41;;;;;;;;;1.50;1.50;;;;;17.43;90.19;98944.16;4988242;28;8882;-68
2023/08/03 02:52:07;;;;;;;;;2.25;1.25;;;;;17.43;89.91;98946.91;5005333;28;8826;-68
2023/08/03 02:54:44;;;;;;;;;3.00;1.75;;;;;17.44;89.97;98951.22;5009008;28;8847;-68
2023/08/03 02:57:11;;;;;;;;;2.25;2.25;;;;;17.44;89.98;98951.22;5015019;28;8842;-67
2023/08/03 02:59:38;;;;;;;;;2.00;2.00;;;;;17.44;89.85;98948.50;5020608;28;8855;-67
2023/08/03 03:02:05;;;;;;;;;2.75;2.00;;;;;17.43;90.22;98957.78;5025391;28;8859;-67
2023/08/03 03:04:36;;;;;;;;;2.00;2.00;;;;;17.43;90.12;98957.78;5029138;28;8974;-67
2023/08/03 03:07:02;;;;;;;;;5.75;4.50;;;;;17.40;89.78;98961.06;5023560;28;8869;-67
2023/08/03 03:09:30;;;;;;;;;2.00;2.00;;;;;17.40;89.95;98966.50;5021266;28;8823;-67
2023/08/03 03:11:59;;;;;;;;;1.25;1.25;;;;;17.40;89.96;98961.06;5023529;28;8867;-67
2023/08/03 03:14:36;;;;;;;;;5.75;2.75;;;;;17.39;90.05;98957.53;5012180;28;8847;-68
2023/08/03 03:17:03;;;;;;;;;2.25;2.00;;;;;17.39;89.92;98962.97;5012168;28;8847;-68
2023/08/03 03:19:30;;;;;;;;;2.50;2.00;;;;;17.39;89.85;98965.69;5008733;28;9618;-67
2023/08/03 03:21:57;;;;;;;;;2.00;2.00;;;;;17.40;90.13;98969.22;5008932;28;9682;-67
2023/08/03 03:24:24;;;;;;;;;1.50;1.50;;;;;17.41;90.00;98970.84;5013625;28;8863;-68
2023/08/03 03:26:50;;;;;;;;;2.25;2.25;;;;;17.40;89.86;98978.19;5008710;28;8849;-68
2023/08/03 03:29:17;;;;;;;;;2.00;2.00;;;;;17.41;89.85;98982.53;4992431;28;8861;-67
2023/08/03 03:31:44;;;;;;;;;2.50;2.25;;;;;17.42;89.87;98986.88;5001086;28;8847;-67
2023/08/03 03:34:11;;;;;;;;;1.25;1.25;;;;;17.41;90.07;98992.59;5005099;28;8920;-67
2023/08/03 03:36:38;;;;;;;;;2.25;2.25;;;;;17.38;90.11;98990.44;4996358;28;8851;-68
2023/08/03 03:39:05;;;;;;;;;3.00;3.00;;;;;17.36;89.81;98990.72;5006887;28;8841;-68
2023/08/03 03:41:32;;;;;;;;;3.50;3.50;;;;;17.36;89.86;99003.50;4993561;28;8851;-67
2023/08/03 03:43:58;;;;;;;;;2.50;2.50;;;;;17.35;90.22;99008.16;5013266;28;8823;-68
2023/08/03 03:46:25;;;;;;;;;3.00;3.00;;;;;17.34;90.04;99005.69;5009145;28;8858;-67
2023/08/03 03:48:51;;;;;;;;;2.75;2.75;;;;;17.34;90.21;99006.53;4997831;28;8929;-67
2023/08/03 03:51:20;;;;;;;;;2.75;2.75;;;;;17.34;90.38;99016.56;4996670;28;8842;-67
2023/08/03 03:53:49;;;;;;;;;3.50;2.00;;;;;17.34;90.42;99005.69;4990145;28;9575;-66
2023/08/03 03:56:15;;;;;;;;;2.25;2.00;;;;;17.34;90.36;99017.41;5001319;28;8952;-67
2023/08/03 03:58:42;;;;;;;;;2.50;2.50;;;;;17.32;90.53;99019.59;5011886;28;8837;-67
2023/08/03 04:01:09;;;;;;;;;5.75;3.50;;;;;17.32;90.35;99018.78;5008621;28;8847;-67
2023/08/03 04:03:35;;;;;;;;;3.50;3.50;;;;;17.30;90.16;99014.44;5010760;28;8859;-67
2023/08/03 04:06:05;;;;;;;;;2.00;2.00;;;;;17.30;90.64;99019.06;4998342;28;8877;-67
2023/08/03 04:08:31;;;;;;;;;2.00;2.00;;;;;17.31;90.67;99028.84;5010968;28;8857;-67
2023/08/03 04:10:58;;;;;;;;;3.00;3.00;;;;;17.30;90.57;99028.03;5009881;28;8839;-67
2023/08/03 04:13:24;;;;;;;;;4.50;4.00;;;;;17.28;90.66;99041.09;5008087;28;9876;-67
2023/08/03 04:15:51;;;;;;;;;1.75;1.00;;;;;17.26;90.96;99037.06;5009776;28;8917;-67
2023/08/03 04:18:18;;;;;;;;;2.00;2.00;;;;;17.24;90.78;99040.03;5001157;28;8985;-67
2023/08/03 04:20:45;;;;;;;;;2.00;2.00;;;;;17.23;91.34;99041.13;4995386;28;9033;-67
2023/08/03 04:23:11;;;;;;;;;1.00;1.00;;;;;17.24;90.84;99050.09;5010469;28;8874;-67
2023/08/03 04:25:39;;;;;;;;;1.25;1.25;;;;;17.25;91.22;99049.00;5011059;28;8835;-67
2023/08/03 04:28:21;;;;;;;;;1.00;1.00;;;;;17.26;91.04;99045.22;5027089;28;8954;-67
2023/08/03 04:30:47;;;;;;;;;1.00;1.00;;;;;17.26;90.90;99054.16;5009863;28;8861;-67
2023/08/03 04:33:15;;;;;;;;;0.25;0.25;;;;;17.28;91.20;99062.84;5006377;28;8837;-68
2023/08/03 04:35:41;;;;;;;;;1.00;1.00;;;;;17.29;90.74;99056.31;5010930;28;8831;-68
2023/08/03 04:38:14;;;;;;;;;1.75;1.75;;;;;17.29;90.69;99052.78;5011585;28;8827;-68
2023/08/03 04:40:54;;;;;;;;;2.25;1.50;;;;;17.29;90.44;99063.66;5007374;28;8989;-67
2023/08/03 04:43:24;;;;;;;;;2.25;2.25;;;;;17.27;90.58;99068.56;5010046;28;8962;-68
2023/08/03 04:45:51;;;;;;;;;1.00;1.00;;;;;17.26;90.79;99069.69;5027146;28;8823;-68
2023/08/03 04:48:17;;;;;;;;;0.00;0.00;;;;;17.27;90.90;99071.31;5019862;28;8861;-68
2023/08/03 04:50:44;;;;;;;;;0.00;0.00;;;;;17.28;91.02;99079.16;4976053;28;8849;-68
2023/08/03 04:53:13;;;;;;;;;3.00;2.75;;;;;17.28;90.92;99078.34;5001257;28;8952;-67
2023/08/03 04:55:40;;;;;;;;;0.75;0.75;;;;;17.28;90.68;99079.16;5026054;28;8973;-67
2023/08/03 04:58:07;;;;;;;;;0.25;0.25;;;;;17.26;91.03;99080.56;5010284;28;8835;-67
2023/08/03 05:00:36;;;;;;;;;0.75;0.75;;;;;17.26;90.70;99086.81;4994309;28;8851;-67
2023/08/03 05:03:03;;;;;;;;;1.00;1.00;;;;;17.25;90.94;99087.88;5005356;28;8835;-67
2023/08/03 05:05:30;;;;;;;;;3.00;1.00;;;;;17.21;91.07;99089.53;5001724;28;8873;-67
2023/08/03 05:07:57;;;;;;;;;0.75;0.75;;;;;17.23;91.41;99097.44;4988368;28;8850;-67
2023/08/03 05:10:25;;;;;;;;;1.00;1.00;;;;;17.23;91.45;99094.72;5015217;28;9005;-67
2023/08/03 05:12:51;;;;;;;;;1.75;1.75;;;;;17.24;91.39;99099.84;5005819;28;8843;-67
2023/08/03 05:15:18;;;;;;;;;0.75;0.75;;;;;17.25;91.35;99098.75;5007641;28;8851;-67
2023/08/03 05:17:46;;;;;;;;;1.00;1.00;;;;;17.25;91.37;99106.91;5024381;28;8835;-67
2023/08/03 05:20:13;;;;;;;;;3.50;1.25;;;;;17.23;91.00;99103.69;5001405;28;8827;-67
2023/08/03 05:22:39;;;;;;;;;1.00;0.75;;;;;17.21;91.49;99105.84;5009730;28;9573;-67
2023/08/03 05:25:06;;;;;;;;;2.25;1.50;;;;;17.21;91.33;99113.19;5007153;28;8830;-67
2023/08/03 05:27:33;;;;;;;;;1.50;1.00;;;;;17.20;91.30;99111.56;4997315;28;8846;-68
2023/08/03 05:30:00;;;;;;;;;1.75;1.25;;;;;17.19;91.23;99121.66;5008170;28;8839;-67
2023/08/03 05:32:26;;;;;;;;;1.50;0.75;;;;;17.22;91.71;99128.44;5002311;28;8825;-67
2023/08/03 05:34:53;;;;;;;;;0.00;0.00;;;;;17.23;91.62;99127.34;5007048;28;8851;-67
2023/08/03 05:37:20;;;;;;;;;1.00;1.00;;;;;17.24;91.32;99131.69;5003267;28;8928;-68
2023/08/03 05:39:47;;;;;;;;;0.00;0.00;;;;;17.25;91.22;99125.94;4990097;28;8857;-68
2023/08/03 05:42:14;;;;;;;;;0.00;0.00;;;;;17.27;91.07;99136.56;5003171;28;8847;-68
2023/08/03 05:44:41;;;;;;;;;1.50;1.25;;;;;17.27;91.21;99142.81;4984908;28;8843;-68
2023/08/03 05:47:10;;;;;;;;;1.00;1.00;;;;;17.26;91.12;99149.34;5011249;28;8845;-70
2023/08/03 05:49:37;;;;;;;;;2.00;1.00;;;;;17.25;91.16;99144.97;5000217;28;8862;-70
2023/08/03 05:52:05;;;;;;;;;3.00;1.00;;;;;17.23;90.96;99147.19;5003903;28;9591;-69
2023/08/03 05:54:31;;;;;;;;;1.75;1.00;;;;;17.24;91.20;99148.00;5010859;28;8962;-70
2023/08/03 05:56:58;;;;;;;;;2.00;1.00;;;;;17.26;91.05;99162.94;5004805;28;8858;-70
2023/08/03 05:59:24;;;;;;;;;1.00;0.50;;;;;17.28;91.05;99160.75;5006987;28;8858;-67
2023/08/03 06:01:52;;;;;;;;;1.25;0.75;;;;;17.31;91.10;99162.09;5013505;28;8866;-70
2023/08/03 06:04:19;;;;;;;;;1.00;1.00;;;;;17.32;90.67;99160.19;5007187;28;8988;-67
2023/08/03 06:06:46;;;;;;;;;0.25;0.25;;;;;17.33;90.85;99161.81;4994630;28;9009;-68
2023/08/03 06:09:13;;;;;;;;;1.00;1.00;;;;;17.33;90.87;99157.19;5001104;28;8846;-67
2023/08/03 06:11:40;;;;;;;;;1.75;1.75;;;;;17.35;90.84;99170.53;4998453;28;8841;-68
2023/08/03 06:14:11;;;;;;;;;3.00;1.00;;;;;17.35;90.75;99175.97;5005906;28;8830;-68
2023/08/03 06:16:38;;;;;;;;;0.00;0.00;;;;;17.36;90.89;99183.03;5002304;28;8858;-68
2023/08/03 06:19:09;;;;;;;;;1.75;1.00;;;;;17.37;90.57;99185.44;5001525;28;8851;-67
2023/08/03 06:21:36;;;;;;;;;0.50;0.50;;;;;17.38;90.65;99192.53;5022610;28;8835;-67
2023/08/03 06:24:03;;;;;;;;;0.00;0.00;;;;;17.40;90.52;99194.97;5000883;28;8962;-68
2023/08/03 06:26:32;;;;;;;;;1.00;0.00;;;;;17.42;90.65;99196.34;5004615;28;8874;-68
2023/08/03 06:29:00;;;;;;;;;2.25;1.00;;;;;17.44;90.56;99206.91;5010204;28;9395;-68
2023/08/03 06:31:35;;;;;;;;;0.75;0.25;;;;;17.46;90.72;99207.44;4998824;28;8877;-69
2023/08/03 06:34:02;;;;;;;;;0.75;0.00;;;;;17.49;90.35;99212.31;4989936;28;8868;-69
2023/08/03 06:36:29;;;;;;;;;0.00;0.00;;;;;17.50;90.59;99219.38;4992295;28;8850;-70
2023/08/03 06:38:56;;;;;;;;;1.00;1.00;;;;;17.52;90.88;99225.38;4994931;28;8842;-69
2023/08/03 06:41:24;;;;;;;;;1.00;1.00;;;;;17.53;90.60;99224.28;4994416;28;9640;-70
2023/08/03 06:43:53;;;;;;;;;0.75;0.75;;;;;17.52;90.60;99236.25;4994785;28;8896;-68
2023/08/03 06:46:20;;;;;;;;;2.00;0.50;;;;;17.52;90.72;99241.69;5002848;28;8935;-70
2023/08/03 06:48:47;;;;;;;;;1.75;0.50;;;;;17.50;90.70;99246.59;5014228;28;8827;-67
2023/08/03 06:51:14;;;;;;;;;1.00;1.00;;;;;17.51;90.89;99254.50;5008752;28;8854;-67
2023/08/03 06:53:41;;;;;;;;;1.25;0.25;;;;;17.54;90.94;99261.28;4993180;28;8826;-67
2023/08/03 06:56:07;;;;;;;;;0.00;0.00;;;;;17.57;90.89;99262.63;5001855;28;8917;-67
2023/08/03 06:58:34;;;;;;;;;0.00;0.00;;;;;17.59;90.74;99271.34;5013878;28;8835;-67
2023/08/03 07:01:00;;;;;;;;;0.75;0.75;;;;;17.58;90.79;99278.66;5013374;28;8870;-68
2023/08/03 07:03:27;;;;;;;;;0.00;0.00;;;;;17.59;90.83;99284.94;5014248;28;8930;-68
2023/08/03 07:05:54;;;;;;;;;1.00;1.00;;;;;17.57;91.01;99287.94;5008147;28;8842;-68
2023/08/03 07:08:20;;;;;;;;;0.00;0.00;;;;;17.60;90.98;99292.00;5003819;28;8815;-68
2023/08/03 07:10:47;;;;;;;;;1.75;1.00;;;;;17.61;91.01;99302.59;5008909;28;8847;-68
2023/08/03 07:13:13;;;;;;;;;2.00;2.00;;;;;17.62;91.05;99312.38;5008436;28;8846;-67
2023/08/03 07:15:40;;;;;;;;;5.00;5.00;;;;;17.65;90.93;99313.75;5011201;28;8875;-67
2023/08/03 07:18:07;;;;;;;;;0.00;0.00;;;;;17.67;90.94;99328.72;5007502;28;8846;-67
2023/08/03 07:20:34;;;;;;;;;9.00;8.75;;;;;17.69;91.23;99333.88;5010530;28;8932;-67
2023/08/03 07:23:01;;;;;;;;;15.00;11.50;;;;;17.71;91.05;99342.59;5012582;28;8857;-67
2023/08/03 07:25:27;;;;;;;;;9.67;9.00;;;;;17.72;91.30;99349.66;5012353;28;8839;-67
2023/08/03 07:27:54;;;;;;;;;7.50;7.50;;;;;17.71;91.18;99348.84;5012042;28;8943;-68
2023/08/03 07:30:21;;;;;;;;;8.00;8.00;;;;;17.70;91.35;99347.22;5013136;28;8827;-68
2023/08/03 07:32:47;;;;;;;;;5.00;5.00;;;;;17.71;91.24;99353.47;4995733;28;8876;-68
2023/08/03 07:35:14;;;;;;;;;5.00;4.75;;;;;17.70;91.42;99363.53;4993671;28;8927;-68
2023/08/03 07:37:40;;;;;;;;;3.25;3.25;;;;;17.77;91.50;99374.16;5001473;28;8853;-67
2023/08/03 07:40:07;;;;;;;;;5.00;3.25;;;;;17.83;91.39;99377.69;5013125;28;8901;-67
2023/08/03 07:42:34;;;;;;;;;4.00;4.00;;;;;17.91;91.13;99396.16;5010635;28;8839;-67
2023/08/03 07:45:01;;;;;;;;;7.50;4.75;;;;;17.98;91.55;99410.28;4993613;28;8830;-67
2023/08/03 07:47:28;;;;;;;;;9.50;6.25;;;;;18.03;91.61;99413.00;4993305;28;8959;-67
2023/08/03 07:49:57;;;;;;;;;8.00;8.00;;;;;18.06;91.36;99420.59;5009530;28;8853;-69
2023/08/03 07:52:24;;;;;;;;;3.50;2.00;;;;;18.03;90.78;99424.72;5011746;28;8848;-67
2023/08/03 07:54:52;;;;;;;;;5.00;3.00;;;;;17.98;90.86;99429.34;5005654;28;8854;-67
2023/08/03 07:57:18;;;;;;;;;1.25;1.25;;;;;17.97;91.03;99438.59;5002259;28;8915;-68
2023/08/03 07:59:49;;;;;;;;;1.50;1.50;;;;;18.00;90.76;99447.03;5011232;28;8920;-68
2023/08/03 08:02:16;;;;;;;;;2.50;2.00;;;;;18.00;90.87;99457.94;5012585;28;8973;-68
2023/08/03 08:04:43;;;;;;;;;3.25;3.00;;;;;17.98;90.35;99468.28;5004669;28;9001;-68
2023/08/03 08:07:09;;;;;;;;;2.00;2.00;;;;;17.88;90.58;99478.38;5007712;28;8835;-67
2023/08/03 08:09:36;;;;;;;;;2.25;2.25;;;;;17.83;90.29;99486.56;5006360;28;8866;-68
2023/08/03 08:12:06;;;;;;;;;1.00;1.00;;;;;17.78;90.42;99485.50;5007778;28;8868;-67
2023/08/03 08:14:33;;;;;;;;;2.00;2.00;;;;;17.83;90.81;99490.09;5004871;28;8862;-67
2023/08/03 08:16:59;;;;;;;;;1.50;1.50;;;;;17.93;90.75;99497.44;5012619;28;8835;-67
2023/08/03 08:19:39;;;;;;;;;1.00;1.00;;;;;18.02;90.45;99506.66;5011189;28;8835;-68
2023/08/03 08:22:07;;;;;;;;;3.00;3.00;;;;;18.06;89.79;99502.28;5007615;28;8841;-67
2023/08/03 08:24:42;;;;;;;;;2.50;2.50;;;;;18.12;89.76;99514.00;5008154;28;8842;-67
2023/08/03 08:27:09;;;;;;;;;2.50;2.25;;;;;18.19;89.30;99512.63;4991450;28;8854;-67
2023/08/03 08:29:37;;;;;;;;;3.00;3.00;;;;;18.29;88.69;99522.66;5008090;28;9691;-68
2023/08/03 08:32:04;;;;;;;;;1.00;1.00;;;;;18.41;88.72;99525.06;5010876;28;8854;-67
2023/08/03 08:34:30;;;;;;;;;3.25;3.00;;;;;18.49;88.00;99528.03;5008942;28;8919;-68
2023/08/03 08:36:58;;;;;;;;;2.75;2.75;;;;;18.51;87.50;99536.75;5008779;28;8950;-68
2023/08/03 08:39:25;;;;;;;;;1.50;1.50;;;;;18.48;87.03;99542.75;5004246;28;8954;-68
2023/08/03 08:41:51;;;;;;;;;3.75;3.00;;;;;18.45;86.99;99545.22;5011617;28;8850;-68
2023/08/03 08:44:18;;;;;;;;;3.50;2.75;;;;;18.37;86.42;99556.69;5007380;28;9046;-67
2023/08/03 08:46:45;;;;;;;;;2.50;2.50;;;;;18.29;86.56;99567.06;5007011;28;9629;-68
2023/08/03 08:49:12;;;;;;;;;2.00;2.00;;;;;18.22;86.94;99569.25;5006712;28;8925;-68
2023/08/03 08:51:42;;;;;;;;;4.00;3.00;;;;;18.15;86.92;99579.63;5007237;28;8813;-67
2023/08/03 08:54:12;;;;;;;;;5.25;4.00;;;;;18.13;87.60;99572.81;4996527;28;8835;-67
2023/08/03 08:56:41;;;;;;;;;3.00;2.00;;;;;18.16;87.70;99578.53;5012063;28;9602;-67
2023/08/03 08:59:10;;;;;;;;;2.00;2.00;;;;;18.26;87.64;99588.59;5010216;28;8881;-67
2023/08/03 09:01:47;;;;;;;;;2.75;2.75;;;;;18.29;86.96;99583.41;4999416;28;8931;-67
2023/08/03 09:04:14;;;;;;;;;3.25;2.25;;;;;18.31;87.00;99594.03;4995509;28;8846;-67
2023/08/03 09:06:44;;;;;;;;;2.00;2.00;;;;;18.35;87.21;99597.84;5010190;28;9594;-67
2023/08/03 09:09:12;;;;;;;;;3.75;3.50;;;;;18.37;87.29;99603.81;5011168;28;8827;-67
2023/08/03 09:11:40;;;;;;;;;3.00;3.00;;;;;18.48;87.06;99610.88;5010051;28;8857;-67
2023/08/03 09:14:09;;;;;;;;;2.00;2.00;;;;;18.57;86.81;99618.50;5008527;28;8834;-67
2023/08/03 09:16:37;;;;;;;;;3.00;2.50;;;;;18.65;86.25;99621.47;5010867;28;8870;-67
2023/08/03 09:19:04;;;;;;;;;2.25;2.25;;;;;18.57;85.19;99632.94;5010013;28;8997;-67
2023/08/03 09:21:30;;;;;;;;;1.00;1.00;;;;;18.53;85.09;99634.56;4993446;28;8851;-67
2023/08/03 09:24:15;;;;;;;;;1.00;1.00;;;;;18.50;84.58;99638.66;5010401;28;8877;-67
2023/08/03 09:26:45;;;;;;;;;1.00;0.75;;;;;18.41;84.22;99656.66;5011202;28;8810;-67
2023/08/03 09:29:14;;;;;;;;;2.50;1.50;;;;;18.39;84.25;99660.75;5009417;28;8901;-67
2023/08/03 09:31:46;;;;;;;;;0.00;0.00;;;;;18.35;83.91;99663.22;5008966;28;8818;-67
2023/08/03 09:34:15;;;;;;;;;2.75;2.00;;;;;18.29;84.19;99672.50;5011326;28;9536;-67
2023/08/03 09:36:48;;;;;;;;;0.00;0.00;;;;;18.27;84.81;99682.81;5010672;28;9548;-67
2023/08/03 09:39:37;;;;;;;;;2.75;1.25;;;;;18.32;85.58;99671.94;5011151;28;9590;-67
2023/08/03 09:42:05;;;;;;;;;1.50;1.50;;;;;18.40;85.70;99682.28;4997589;28;9551;-68
2023/08/03 09:44:36;;;;;;;;;2.00;1.00;;;;;18.43;84.95;99687.19;5011089;28;8881;-68
2023/08/03 09:47:03;;;;;;;;;3.75;2.00;;;;;18.35;84.29;99698.66;5006356;28;8842;-67
2023/08/03 09:49:32;;;;;;;;;1.00;1.00;;;;;18.24;84.64;99708.72;4991349;28;8853;-68
2023/08/03 09:52:05;;;;;;;;;1.00;1.00;;;;;18.31;84.78;99707.63;5000463;28;8928;-68
2023/08/03 09:54:37;;;;;;;;;1.75;1.75;;;;;18.37;84.39;99710.06;4991252;28;8837;-68
2023/08/03 09:57:13;;;;;;;;;3.00;3.00;;;;;18.38;84.52;99722.59;5001182;28;8819;-68
2023/08/03 09:59:44;;;;;;;;;3.25;2.50;;;;;18.38;84.56;99732.69;5009740;28;8847;-68
2023/08/03 10:02:17;;;;;;;;;2.25;1.75;;;;;18.33;84.42;99746.31;5009470;28;8890;-68
2023/08/03 10:04:55;;;;;;;;;0.75;0.75;;;;;18.32;84.65;99748.22;5010480;28;8962;-68
2023/08/03 10:07:28;;;;;;;;;1.75;1.25;;;;;18.25;84.71;99755.84;4993109;28;8847;-68
2023/08/03 10:09:58;;;;;;;;;3.25;2.00;;;;;18.25;84.71;99762.09;5006203;28;8858;-68
2023/08/03 10:12:34;;;;;;;;;2.00;1.75;;;;;18.26;84.54;99769.19;4990324;28;8834;-67
2023/08/03 10:15:02;;;;;;;;;1.00;1.00;;;;;18.19;84.71;99771.38;5005265;28;9679;-68
2023/08/03 10:17:29;;;;;;;;;2.25;1.25;;;;;18.16;84.58;99771.09;5010274;28;9579;-67
2023/08/03 10:19:59;;;;;;;;;3.25;2.00;;;;;18.12;84.66;99779.00;4995079;28;8854;-68
2023/08/03 10:22:26;;;;;;;;;2.00;2.00;;;;;18.08;84.56;99777.91;4990714;28;8829;-68
2023/08/03 10:25:18;;;;;;;;;3.00;1.75;;;;;18.11;84.96;99788.25;4998989;28;8892;-68
2023/08/03 10:28:09;;;;;;;;;2.00;2.00;;;;;18.01;84.77;99804.56;4990542;28;9156;-68
2023/08/03 10:31:03;;;;;;;;;2.25;2.00;;;;;18.01;84.69;99812.72;4990327;28;8850;-68
2023/08/03 10:36:27;;;;;;;;;2.75;2.75;;;;;18.02;84.71;99831.50;4990474;28;8861;-68
2023/08/03 10:38:56;;;;;;;;;3.00;1.00;;;;;18.06;85.23;99837.25;5000994;28;8859;-68
2023/08/03 10:41:25;;;;;;;;;1.50;1.50;;;;;18.03;84.57;99843.25;5008710;28;8893;-68
2023/08/03 10:44:14;;;;;;;;;1.00;1.00;;;;;17.99;84.14;99839.44;5009864;28;9626;-67
2023/08/03 10:46:49;;;;;;;;;1.00;1.00;;;;;17.97;83.34;99852.47;5003292;28;9048;-68
2023/08/03 10:51:47;;;;;;;;;0.25;0.25;;;;;17.92;82.56;99871.53;5007034;28;8839;-68
2023/08/03 10:54:14;;;;;;;;;0.00;0.00;;;;;17.95;82.76;99871.00;4998349;28;8850;-68
2023/08/03 10:57:02;;;;;;;;;1.00;0.00;;;;;17.95;82.88;99879.97;5010045;28;8831;-67
2023/08/03 10:59:28;;;;;;;;;0.00;0.00;;;;;17.94;82.47;99885.69;5001019;28;8817;-68
2023/08/03 11:01:55;;;;;;;;;0.00;0.00;;;;;17.98;81.70;99889.50;4988744;28;8872;-68
2023/08/03 11:04:25;;;;;;;;;0.75;0.75;;;;;18.00;80.96;99903.69;4990463;28;8834;-68
2023/08/03 11:06:51;;;;;;;;;2.50;0.25;;;;;18.15;80.60;99897.47;5002128;28;8823;-68
2023/08/03 11:09:18;;;;;;;;;1.00;1.00;;;;;18.12;79.74;99915.16;5002494;28;8860;-67
2023/08/03 11:11:45;;;;;;;;;1.00;0.00;;;;;18.15;79.56;99916.53;4990125;28;9527;-68
2023/08/03 11:14:13;;;;;;;;;2.00;0.50;;;;;18.13;79.38;99916.81;4990338;28;8837;-68
2023/08/03 11:16:40;;;;;;;;;0.00;0.00;;;;;18.20;78.98;99913.84;4990509;28;8826;-67
2023/08/03 11:19:07;;;;;;;;;1.00;1.00;;;;;18.28;79.27;99935.94;5023392;28;8917;-67
2023/08/03 11:21:34;;;;;;;;;2.00;1.00;;;;;18.21;77.64;99935.34;5009701;28;8843;-67
2023/08/03 11:24:00;;;;;;;;;0.25;0.25;;;;;18.18;77.46;99937.78;5011845;28;8857;-67
2023/08/03 11:26:27;;;;;;;;;0.25;0.25;;;;;18.24;77.48;99945.72;5012163;28;8974;-67
2023/08/03 11:28:54;;;;;;;;;1.25;1.00;;;;;18.27;76.71;99956.09;5009708;28;8884;-67
2023/08/03 11:31:21;;;;;;;;;1.00;1.00;;;;;18.32;76.95;99951.75;5000242;28;8826;-67
2023/08/03 11:33:51;;;;;;;;;0.50;0.00;;;;;18.34;76.56;99957.75;4993761;28;8876;-67
2023/08/03 11:36:22;;;;;;;;;0.25;0.00;;;;;18.51;76.42;99971.97;4994020;28;8837;-68
2023/08/03 11:38:50;;;;;;;;;0.00;0.00;;;;;18.62;76.60;99976.34;4992428;28;8838;-67
2023/08/03 11:41:20;;;;;;;;;0.25;0.25;;;;;18.59;76.27;99986.97;4976129;28;8837;-67
2023/08/03 11:43:58;;;;;;;;;0.00;0.00;;;;;18.57;75.54;99991.88;4996224;28;8977;-67
2023/08/03 11:46:28;;;;;;;;;2.50;2.50;;;;;18.48;75.76;99997.03;4999191;28;8857;-67
2023/08/03 11:49:01;;;;;;;;;1.75;1.00;;;;;18.38;76.16;100010.63;5009341;28;8962;-67
2023/08/03 11:51:36;;;;;;;;;2.50;1.00;;;;;18.38;76.11;100013.34;4993143;28;8829;-67